createdAt,value
2019-04-27T00:02:03.699Z,93210.91
2019-04-27T00:04:55.680Z,93257.75
2019-04-27T00:07:29.203Z,93265.65
2019-04-27T00:10:03.873Z,93274.34
2019-04-27T00:12:34.223Z,93294.90
2019-04-27T00:15:05.387Z,93264.45
2019-04-27T00:17:49.398Z,93292.30
2019-04-27T00:20:25.964Z,93311.40
2019-04-27T00:23:00.242Z,93327.47
2019-04-27T00:25:30.141Z,93299.88
2019-04-27T00:28:01.534Z,93279.29
2019-04-27T00:30:31.296Z,93342.23
2019-04-27T00:33:05.351Z,93339.03
2019-04-27T00:35:39.630Z,93340.09
2019-04-27T00:38:13.655Z,93344.77
2019-04-27T00:40:45.446Z,93361.98
2019-04-27T00:43:17.817Z,93332.17
2019-04-27T00:45:48.103Z,93318.34
2019-04-27T00:48:17.905Z,93338.54
2019-04-27T00:50:47.710Z,93332.80
2019-04-27T00:53:20.660Z,93352.92
2019-04-27T00:56:08.198Z,93380.27
2019-04-27T00:58:41.055Z,93383.35
2019-04-27T01:01:23.269Z,93397.52
2019-04-27T01:03:55.179Z,93420.30
2019-04-27T01:06:25.304Z,93408.92
2019-04-27T01:08:55.907Z,93396.12
2019-04-27T01:11:25.982Z,93461.01
2019-04-27T01:13:58.076Z,93476.82
2019-04-27T01:16:29.357Z,93505.11
2019-04-27T01:18:59.508Z,93506.52
2019-04-27T01:21:32.419Z,93502.16
2019-04-27T01:24:02.272Z,93528.23
2019-04-27T01:26:34.409Z,93535.59
2019-04-27T01:29:05.895Z,93549.91
2019-04-27T01:31:36.420Z,93551.09
2019-04-27T01:34:06.635Z,93581.78
2019-04-27T01:36:36.757Z,93612.47
2019-04-27T01:39:09.925Z,93598.83
2019-04-27T01:41:40.069Z,93620.75
2019-04-27T01:44:10.659Z,93634.39
2019-04-27T01:46:40.275Z,93637.16
2019-04-27T01:49:11.925Z,93663.59
2019-04-27T01:51:44.186Z,93684.81
2019-04-27T01:54:16.537Z,93700.48
2019-04-27T01:56:47.118Z,93706.21
2019-04-27T01:59:16.690Z,93709.70
2019-04-27T02:01:52.920Z,93687.70
2019-04-27T02:04:27.040Z,93678.13
2019-04-27T02:06:59.111Z,93622.16
2019-04-27T02:09:29.027Z,93604.68
2019-04-27T02:11:59.597Z,93595.58
2019-04-27T02:14:31.789Z,93597.00
2019-04-27T02:17:02.412Z,93590.63
2019-04-27T02:19:35.364Z,93583.52
2019-04-27T02:22:05.118Z,93568.88
2019-04-27T02:24:34.915Z,93594.43
2019-04-27T02:27:08.848Z,93563.92
2019-04-27T02:29:40.819Z,93557.34
2019-04-27T02:32:16.147Z,93572.48
2019-04-27T02:34:50.394Z,93596.41
2019-04-27T02:37:20.186Z,93639.49
2019-04-27T02:39:50.875Z,93658.38
2019-04-27T02:42:22.031Z,93675.73
2019-04-27T02:44:51.902Z,93656.97
2019-04-27T02:47:21.633Z,93640.17
2019-04-27T02:49:51.348Z,93639.70
2019-04-27T02:52:31.788Z,93663.66
2019-04-27T02:55:01.614Z,93658.59
2019-04-27T02:57:31.391Z,93654.44
2019-04-27T03:00:01.120Z,93633.44
2019-04-27T03:02:32.419Z,93662.84
2019-04-27T03:05:03.676Z,93636.13
2019-04-27T03:07:33.902Z,93654.89
2019-04-27T03:10:05.259Z,93663.36
2019-04-27T03:12:36.425Z,93663.76
2019-04-27T03:15:25.581Z,93671.92
2019-04-27T03:18:00.791Z,93642.89
2019-04-27T03:20:44.801Z,93613.19
2019-04-27T03:23:15.904Z,93604.48
2019-04-27T03:25:50.407Z,93662.32
2019-04-27T03:28:20.173Z,93641.25
2019-04-27T03:30:52.137Z,93625.12
2019-04-27T03:33:22.715Z,93648.34
2019-04-27T03:35:53.441Z,93651.34
2019-04-27T03:38:25.055Z,93686.86
2019-04-27T03:40:57.292Z,93691.00
2019-04-27T03:43:27.175Z,93676.63
2019-04-27T03:46:00.314Z,93686.66
2019-04-27T03:48:30.194Z,93688.30
2019-04-27T03:51:09.706Z,93726.30
2019-04-27T03:53:52.245Z,93712.30
2019-04-27T03:56:30.523Z,93719.38
2019-04-27T03:59:02.032Z,93711.61
2019-04-27T04:01:31.917Z,93720.33
2019-04-27T04:04:02.442Z,93742.41
2019-04-27T04:06:32.198Z,93747.12
2019-04-27T04:09:02.166Z,93763.58
2019-04-27T04:11:35.176Z,93784.39
2019-04-27T04:14:16.641Z,93784.78
2019-04-27T04:16:49.713Z,93804.35
2019-04-27T04:19:19.734Z,93808.77
2019-04-27T04:21:50.494Z,93803.67
2019-04-27T04:24:23.386Z,93805.88
2019-04-27T04:26:53.170Z,93818.11
2019-04-27T04:29:24.674Z,93819.17
2019-04-27T04:31:56.018Z,93831.47
2019-04-27T04:34:26.938Z,93824.27
2019-04-27T04:36:56.705Z,93821.75
2019-04-27T04:39:26.534Z,93821.30
2019-04-27T04:42:00.537Z,93818.57
2019-04-27T04:44:35.255Z,93828.41
2019-04-27T04:47:06.483Z,93826.72
2019-04-27T04:49:36.245Z,93834.84
2019-04-27T04:52:06.163Z,93851.91
2019-04-27T04:54:35.909Z,93844.38
2019-04-27T04:57:05.696Z,93855.37
2019-04-27T04:59:36.118Z,93877.84
2019-04-27T05:02:05.844Z,93855.86
2019-04-27T05:04:35.641Z,93869.38
2019-04-27T05:07:06.397Z,93863.50
2019-04-27T05:09:37.002Z,93863.11
2019-04-27T05:12:06.783Z,93850.53
2019-04-27T05:14:36.705Z,93858.36
2019-04-27T05:17:06.456Z,93866.58
2019-04-27T05:19:36.235Z,93878.58
2019-04-27T05:22:09.366Z,93885.28
2019-04-27T05:24:40.893Z,93826.24
2019-04-27T05:27:13.634Z,93775.81
2019-04-27T05:29:45.656Z,93726.01
2019-04-27T05:32:15.411Z,93695.66
2019-04-27T05:34:46.486Z,93618.36
2019-04-27T05:37:27.660Z,93579.80
2019-04-27T05:39:49.432Z,93555.99
2019-04-27T05:42:20.812Z,93541.31
2019-04-27T05:45:20.012Z,93476.78
2019-04-27T05:47:58.942Z,93432.64
2019-04-27T05:50:38.773Z,93387.38
2019-04-27T05:53:05.957Z,93588.77
2019-04-27T05:55:35.860Z,93557.23
2019-04-27T05:58:07.009Z,93597.13
2019-04-27T06:00:39.365Z,93460.97
2019-04-27T06:03:11.587Z,93445.00
2019-04-27T06:05:41.358Z,93417.05
2019-04-27T06:08:11.366Z,93381.89
2019-04-27T06:10:41.853Z,93399.00
2019-04-27T06:13:12.852Z,93298.23
2019-04-27T06:15:43.037Z,93216.16
2019-04-27T06:18:12.947Z,93178.63
2019-04-27T06:20:51.327Z,93422.25
2019-04-27T06:23:15.766Z,93394.95
2019-04-27T06:25:46.420Z,93441.85
2019-04-27T06:28:19.051Z,93447.22
2019-04-27T06:30:52.089Z,93517.26
2019-04-27T06:33:32.105Z,93465.86
2019-04-27T06:35:55.341Z,93460.56
2019-04-27T06:38:26.010Z,93442.98
2019-04-27T06:40:56.719Z,93370.81
2019-04-27T06:43:29.451Z,93410.27
2019-04-27T06:45:59.362Z,93308.34
2019-04-27T06:48:31.476Z,93267.88
2019-04-27T06:51:03.667Z,93180.33
2019-04-27T06:53:34.282Z,93155.64
2019-04-27T06:56:03.892Z,92975.55
2019-04-27T06:58:35.538Z,92935.84
2019-04-27T07:01:05.255Z,92792.88
2019-04-27T07:03:35.867Z,92519.62
2019-04-27T07:06:05.730Z,92560.88
2019-04-27T07:08:36.334Z,92652.22
2019-04-27T07:11:11.697Z,92823.16
2019-04-27T07:13:43.686Z,92745.75
2019-04-27T07:16:16.591Z,92634.91
2019-04-27T07:18:46.408Z,92785.61
2019-04-27T07:21:19.457Z,92576.59
2019-04-27T07:23:59.877Z,92456.08
2019-04-27T07:26:31.304Z,92619.76
2019-04-27T07:29:03.635Z,92576.09
2019-04-27T07:31:36.582Z,92535.23
2019-04-27T07:34:07.019Z,92476.52
2019-04-27T07:36:39.457Z,92358.07
2019-04-27T07:39:11.503Z,92323.58
2019-04-27T07:41:41.078Z,92308.39
2019-04-27T07:44:16.591Z,92095.67
2019-04-27T07:46:49.832Z,91961.91
2019-04-27T07:49:20.572Z,91456.72
2019-04-27T07:51:51.426Z,91205.75
2019-04-27T07:54:21.171Z,91094.64
2019-04-27T07:56:50.975Z,90450.94
2019-04-27T07:59:23.191Z,89344.00
2019-04-27T08:01:56.143Z,88874.47
2019-04-27T08:04:28.781Z,88460.45
2019-04-27T08:06:59.659Z,87850.59
2019-04-27T08:09:29.520Z,87767.36
2019-04-27T08:11:59.236Z,88142.60
2019-04-27T08:14:32.054Z,88447.86
2019-04-27T08:17:04.418Z,88388.08
2019-04-27T08:19:36.618Z,88040.81
2019-04-27T08:22:07.246Z,87064.86
2019-04-27T08:24:37.063Z,87674.02
2019-04-27T08:27:14.588Z,87917.33
2019-04-27T08:30:01.378Z,88846.89
2019-04-27T08:32:35.701Z,88314.45
2019-04-27T08:35:09.573Z,88490.02
2019-04-27T08:37:39.881Z,88009.87
2019-04-27T08:40:10.003Z,87635.20
2019-04-27T08:42:42.165Z,86612.54
2019-04-27T08:45:12.603Z,86763.71
2019-04-27T08:47:42.422Z,86763.71
2019-04-27T08:50:12.229Z,86910.91
2019-04-27T08:52:42.107Z,87994.34
2019-04-27T08:55:14.968Z,88070.51
2019-04-27T08:57:45.417Z,88512.33
2019-04-27T09:00:15.278Z,88165.00
2019-04-27T09:02:47.357Z,87482.60
2019-04-27T09:05:21.109Z,87477.66
2019-04-27T09:07:55.185Z,87346.16
2019-04-27T09:10:31.520Z,87346.16
2019-04-27T09:13:04.850Z,87378.52
2019-04-27T09:15:40.377Z,87378.52
2019-04-27T09:18:14.038Z,88051.42
2019-04-27T09:20:45.701Z,88881.67
2019-04-27T09:23:18.800Z,89646.72
2019-04-27T09:25:49.604Z,90229.70
2019-04-27T09:28:21.701Z,90235.31
2019-04-27T09:30:52.447Z,90248.41
2019-04-27T09:33:23.213Z,89940.12
2019-04-27T09:35:53.002Z,89619.13
2019-04-27T09:38:23.310Z,89261.07
2019-04-27T09:40:55.870Z,89305.78
2019-04-27T09:43:26.532Z,88432.46
2019-04-27T09:45:56.407Z,88265.13
2019-04-27T09:48:26.690Z,87963.66
2019-04-27T09:50:58.107Z,87424.44
2019-04-27T09:53:27.913Z,87307.95
2019-04-27T09:55:57.703Z,87597.16
2019-04-27T09:58:27.613Z,87817.20
2019-04-27T10:00:57.393Z,87817.20
2019-04-27T10:03:28.350Z,88076.41
2019-04-27T10:05:58.082Z,88984.70
2019-04-27T10:08:28.015Z,88869.20
2019-04-27T10:10:57.840Z,88237.27
2019-04-27T10:13:27.755Z,88127.29
2019-04-27T10:15:57.562Z,88651.02
2019-04-27T10:18:28.248Z,88932.61
2019-04-27T10:21:01.920Z,89015.05
2019-04-27T10:23:29.786Z,89116.16
2019-04-27T10:25:59.570Z,88980.27
2019-04-27T10:28:30.985Z,89070.19
2019-04-27T10:31:00.812Z,89311.06
2019-04-27T10:33:32.397Z,89449.93
2019-04-27T10:36:02.137Z,89606.86
2019-04-27T10:38:35.847Z,89676.89
2019-04-27T10:41:07.698Z,89728.05
2019-04-27T10:43:37.693Z,89726.00
2019-04-27T10:46:07.579Z,89641.84
2019-04-27T10:48:38.224Z,89161.91
2019-04-27T10:51:08.008Z,88936.70
2019-04-27T10:53:40.121Z,88532.16
2019-04-27T10:56:10.026Z,88320.55
2019-04-27T10:58:42.554Z,88052.88
2019-04-27T11:01:12.767Z,88035.85
2019-04-27T11:04:00.981Z,88020.27
2019-04-27T11:06:32.929Z,87894.64
2019-04-27T11:09:02.634Z,87416.41
2019-04-27T11:11:34.052Z,86659.81
2019-04-27T11:14:04.655Z,86005.03
2019-04-27T11:16:35.690Z,85756.25
2019-04-27T11:19:08.736Z,86470.80
2019-04-27T11:21:38.404Z,87333.10
2019-04-27T11:24:08.439Z,88793.22
2019-04-27T11:26:41.332Z,89074.13
2019-04-27T11:29:11.207Z,89673.42
2019-04-27T11:31:43.407Z,89844.53
2019-04-27T11:34:14.147Z,89729.84
2019-04-27T11:36:55.550Z,89909.19
2019-04-27T11:39:27.551Z,89892.28
2019-04-27T11:42:00.302Z,90023.03
2019-04-27T11:44:30.716Z,90203.66
2019-04-27T11:47:01.766Z,90064.89
2019-04-27T11:49:31.438Z,89791.11
2019-04-27T11:52:01.634Z,89660.25
2019-04-27T11:54:32.254Z,90015.69
2019-04-27T11:57:02.030Z,89704.19
2019-04-27T11:59:31.869Z,89835.66
2019-04-27T12:02:02.389Z,89592.64
2019-04-27T12:04:33.194Z,89412.77
2019-04-27T12:07:03.022Z,89292.67
2019-04-27T12:09:32.812Z,89043.77
2019-04-27T12:12:13.611Z,88895.05
2019-04-27T12:14:34.788Z,88499.13
2019-04-27T12:17:06.342Z,87813.14
2019-04-27T12:19:36.391Z,86835.78
2019-04-27T12:22:06.522Z,86598.24
2019-04-27T12:24:37.544Z,86312.69
2019-04-27T12:27:25.734Z,85527.23
2019-04-27T12:30:13.363Z,85319.22
2019-04-27T12:32:45.683Z,85768.76
2019-04-27T12:35:16.740Z,86145.27
2019-04-27T12:37:46.466Z,86260.13
2019-04-27T12:40:16.714Z,86279.59
2019-04-27T12:42:48.100Z,86381.22
2019-04-27T12:45:19.165Z,86973.88
2019-04-27T12:47:52.756Z,87211.57
2019-04-27T12:50:24.008Z,87390.40
2019-04-27T12:53:04.446Z,87603.12
2019-04-27T12:55:39.178Z,87612.51
2019-04-27T12:58:27.854Z,87375.24
2019-04-27T13:01:07.289Z,87094.83
2019-04-27T13:03:36.539Z,87091.49
2019-04-27T13:06:06.649Z,86649.97
2019-04-27T13:08:36.481Z,86165.39
2019-04-27T13:11:09.179Z,86504.59
2019-04-27T13:13:40.134Z,86735.67
2019-04-27T13:16:09.960Z,86928.43
2019-04-27T13:18:41.316Z,87008.27
2019-04-27T13:21:12.968Z,86959.98
2019-04-27T13:23:42.832Z,87147.12
2019-04-27T13:26:12.682Z,87199.28
2019-04-27T13:28:43.426Z,87413.41
2019-04-27T13:31:15.564Z,86990.33
2019-04-27T13:33:46.988Z,86523.58
2019-04-27T13:36:16.802Z,86460.33
2019-04-27T13:38:48.230Z,86578.36
2019-04-27T13:41:28.257Z,86373.28
2019-04-27T13:43:49.871Z,86225.97
2019-04-27T13:46:25.983Z,86225.97
2019-04-27T13:49:00.985Z,86849.64
2019-04-27T13:51:32.871Z,87211.84
2019-04-27T13:54:14.507Z,87350.59
2019-04-27T13:56:35.227Z,87575.52
2019-04-27T13:59:07.676Z,87818.63
2019-04-27T14:01:37.051Z,87932.12
2019-04-27T14:04:07.364Z,88033.67
2019-04-27T14:06:41.797Z,88122.16
2019-04-27T14:09:12.689Z,88297.22
2019-04-27T14:11:42.249Z,88370.82
2019-04-27T14:14:13.144Z,88370.82
2019-04-27T14:16:46.846Z,88296.69
2019-04-27T14:19:18.821Z,88469.23
2019-04-27T14:21:49.029Z,88609.14
2019-04-27T14:24:27.945Z,88734.69
2019-04-27T14:26:53.961Z,88768.78
2019-04-27T14:29:24.037Z,89004.44
2019-04-27T14:31:54.068Z,89166.33
2019-04-27T14:34:24.955Z,89074.98
2019-04-27T14:36:55.780Z,89489.36
2019-04-27T14:39:28.574Z,89760.42
2019-04-27T14:41:58.932Z,89683.94
2019-04-27T14:44:29.272Z,90036.98
2019-04-27T14:47:00.306Z,89962.75
2019-04-27T14:49:31.140Z,90028.34
2019-04-27T14:52:01.025Z,89977.72
2019-04-27T14:54:45.160Z,89868.68
2019-04-27T14:57:04.139Z,89909.41
2019-04-27T14:59:34.213Z,89901.06
2019-04-27T15:02:06.483Z,89993.08
2019-04-27T15:04:37.624Z,90189.24
2019-04-27T15:07:08.552Z,90217.38
2019-04-27T15:09:40.420Z,90206.64
2019-04-27T15:12:11.346Z,90248.86
2019-04-27T15:14:43.571Z,90398.09
2019-04-27T15:17:17.634Z,90626.66
2019-04-27T15:19:55.361Z,90960.32
2019-04-27T15:22:27.209Z,91099.55
2019-04-27T15:25:09.377Z,91212.69
2019-04-27T15:27:37.424Z,91269.14
2019-04-27T15:30:11.373Z,91201.33
2019-04-27T15:32:54.040Z,91292.00
2019-04-27T15:35:30.655Z,91578.05
2019-04-27T15:38:18.710Z,91740.67
2019-04-27T15:40:57.933Z,91846.77
2019-04-27T15:43:32.617Z,92072.39
2019-04-27T15:46:02.500Z,92405.39
2019-04-27T15:48:34.150Z,92557.64
2019-04-27T15:51:09.555Z,92380.45
2019-04-27T15:53:38.573Z,92383.66
2019-04-27T15:56:08.929Z,92332.53
2019-04-27T15:58:39.028Z,92159.02
2019-04-27T16:01:11.913Z,92053.88
2019-04-27T16:03:42.483Z,92126.61
2019-04-27T16:06:13.069Z,92260.74
2019-04-27T16:08:45.446Z,92283.52
2019-04-27T16:11:17.753Z,92279.84
2019-04-27T16:13:48.842Z,92306.88
2019-04-27T16:16:24.576Z,92240.90
2019-04-27T16:18:55.361Z,92232.20
2019-04-27T16:21:28.153Z,92340.48
2019-04-27T16:23:58.165Z,92325.19
2019-04-27T16:26:29.296Z,92296.06
2019-04-27T16:28:59.182Z,92406.23
2019-04-27T16:31:32.877Z,92526.77
2019-04-27T16:34:04.813Z,92528.36
2019-04-27T16:36:37.876Z,92462.77
2019-04-27T16:39:11.567Z,92383.91
2019-04-27T16:41:42.303Z,92354.34
2019-04-27T16:44:12.287Z,92320.59
2019-04-27T16:46:44.170Z,92334.69
2019-04-27T16:49:15.088Z,92350.71
2019-04-27T16:51:49.196Z,92371.27
2019-04-27T16:54:21.340Z,92374.75
2019-04-27T16:56:58.258Z,92372.41
2019-04-27T16:59:40.985Z,92464.30
2019-04-27T17:01:54.394Z,92549.69
2019-04-27T17:04:24.624Z,92574.73
2019-04-27T17:06:54.498Z,92621.58
2019-04-27T17:09:24.426Z,92621.38
2019-04-27T17:11:55.558Z,92626.30
2019-04-27T17:14:34.821Z,92615.55
2019-04-27T17:17:08.193Z,92668.28
2019-04-27T17:19:45.437Z,92713.94
2019-04-27T17:22:16.389Z,92747.72
2019-04-27T17:24:49.329Z,92799.98
2019-04-27T17:27:28.662Z,92867.86
2019-04-27T17:29:57.963Z,92937.63
2019-04-27T17:32:38.857Z,93024.03
2019-04-27T17:35:11.961Z,93099.41
2019-04-27T17:37:40.187Z,93165.32
2019-04-27T17:40:15.498Z,93237.70
2019-04-27T17:42:48.061Z,93252.77
2019-04-27T17:45:21.387Z,93287.33
2019-04-27T17:47:51.057Z,93325.09
2019-04-27T17:50:25.068Z,93376.95
2019-04-27T17:52:57.400Z,93407.80
2019-04-27T17:55:29.099Z,93431.87
2019-04-27T17:58:05.237Z,93437.84
2019-04-27T18:00:42.974Z,93461.83
2019-04-27T18:03:08.319Z,93493.31
2019-04-27T18:05:38.987Z,93513.81
2019-04-27T18:08:13.634Z,93549.59
2019-04-27T18:10:45.347Z,93570.83
2019-04-27T18:13:20.776Z,93616.23
2019-04-27T18:15:50.606Z,93626.84
2019-04-27T18:18:22.801Z,93641.67
2019-04-27T18:20:56.153Z,93682.66
2019-04-27T18:23:30.234Z,93691.27
2019-04-27T18:26:07.938Z,93711.59
2019-04-27T18:28:45.956Z,93761.48
2019-04-27T18:31:28.920Z,93793.80
2019-04-27T18:34:02.529Z,93800.45
2019-04-27T18:36:33.304Z,93795.48
2019-04-27T18:39:05.616Z,93792.88
2019-04-27T18:41:37.696Z,93795.56
2019-04-27T18:44:11.208Z,93809.91
2019-04-27T18:46:41.458Z,93819.42
2019-04-27T18:49:12.913Z,93839.51
2019-04-27T18:51:48.374Z,93852.25
2019-04-27T18:54:20.088Z,93871.05
2019-04-27T18:57:01.622Z,93855.67
2019-04-27T18:59:22.904Z,93824.34
2019-04-27T19:01:53.669Z,93873.15
2019-04-27T19:04:24.846Z,93876.53
2019-04-27T19:07:02.476Z,93873.30
2019-04-27T19:09:32.355Z,93876.15
2019-04-27T19:12:05.031Z,93871.66
2019-04-27T19:14:49.798Z,93878.23
2019-04-27T19:17:21.358Z,93869.55
2019-04-27T19:19:52.214Z,93860.09
2019-04-27T19:22:22.690Z,93855.22
2019-04-27T19:24:54.064Z,93857.66
2019-04-27T19:27:46.036Z,93826.83
2019-04-27T19:30:21.030Z,93809.03
2019-04-27T19:32:51.907Z,93808.97
2019-04-27T19:35:21.638Z,93800.75
2019-04-27T19:37:53.773Z,93804.70
2019-04-27T19:40:25.218Z,93801.92
2019-04-27T19:42:55.387Z,93790.41
2019-04-27T19:45:26.318Z,93778.20
2019-04-27T19:47:56.567Z,93778.48
2019-04-27T19:50:33.541Z,93769.73
2019-04-27T19:53:03.636Z,93757.88
2019-04-27T19:55:34.418Z,93742.48
2019-04-27T19:58:08.064Z,93720.56
2019-04-27T20:00:45.129Z,93645.56
2019-04-27T20:03:16.875Z,93622.83
2019-04-27T20:05:46.723Z,93579.25
2019-04-27T20:08:18.191Z,93571.13
2019-04-27T20:10:50.329Z,93576.27
2019-04-27T20:13:21.985Z,93590.00
2019-04-27T20:15:51.925Z,93579.84
2019-04-27T20:18:26.521Z,93553.45
2019-04-27T20:21:00.583Z,93544.72
2019-04-27T20:23:30.771Z,93535.88
2019-04-27T20:26:01.007Z,93552.98
2019-04-27T20:28:31.428Z,93457.75
2019-04-27T20:31:02.806Z,93457.45
2019-04-27T20:33:34.771Z,93488.40
2019-04-27T20:36:06.162Z,93468.59
2019-04-27T20:38:35.757Z,93466.30
2019-04-27T20:41:06.954Z,93465.88
2019-04-27T20:43:37.528Z,93468.63
2019-04-27T20:46:09.213Z,93463.39
2019-04-27T20:48:42.248Z,93418.28
2019-04-27T20:51:12.085Z,93337.56
2019-04-27T20:53:45.892Z,93343.72
2019-04-27T20:56:20.054Z,93367.89
2019-04-27T20:58:51.026Z,93367.28
2019-04-27T21:01:23.347Z,93400.54
2019-04-27T21:03:55.521Z,93344.91
2019-04-27T21:06:26.835Z,93347.13
2019-04-27T21:08:56.956Z,93305.23
2019-04-27T21:11:30.840Z,93375.42
2019-04-27T21:14:02.829Z,93400.31
2019-04-27T21:16:36.152Z,93348.30
2019-04-27T21:19:05.864Z,93344.17
2019-04-27T21:21:37.198Z,93342.69
2019-04-27T21:24:09.638Z,93336.80
2019-04-27T21:26:39.307Z,93334.09
2019-04-27T21:29:11.949Z,93239.03
2019-04-27T21:31:42.093Z,93156.94
2019-04-27T21:34:11.949Z,93106.53
2019-04-27T21:36:42.913Z,93098.66
2019-04-27T21:39:12.629Z,93112.19
2019-04-27T21:41:43.127Z,93100.71
2019-04-27T21:44:15.217Z,93137.52
2019-04-27T21:46:47.281Z,93202.30
2019-04-27T21:49:18.549Z,93209.48
2019-04-27T21:52:07.524Z,93099.29
2019-04-27T21:54:41.746Z,93038.36
2019-04-27T21:57:12.811Z,93065.23
2019-04-27T21:59:42.860Z,93088.05
2019-04-27T22:02:14.600Z,93073.13
2019-04-27T22:04:44.388Z,93024.11
2019-04-27T22:07:14.869Z,92987.16
2019-04-27T22:09:45.588Z,92921.40
2019-04-27T22:12:15.571Z,92873.61
2019-04-27T22:14:45.365Z,92908.06
2019-04-27T22:17:16.135Z,92843.85
2019-04-27T22:19:47.203Z,92775.31
2019-04-27T22:22:21.581Z,92735.86
2019-04-27T22:24:54.471Z,92700.03
2019-04-27T22:27:24.254Z,92705.66
2019-04-27T22:29:55.278Z,92754.31
2019-04-27T22:32:25.614Z,92678.77
2019-04-27T22:34:57.005Z,92672.23
2019-04-27T22:37:26.864Z,92777.59
2019-04-27T22:40:10.235Z,92875.34
2019-04-27T22:42:42.908Z,92889.42
2019-04-27T22:45:16.110Z,92959.45
2019-04-27T22:47:45.790Z,92995.34
2019-04-27T22:50:15.986Z,92972.95
2019-04-27T22:52:45.689Z,92895.88
2019-04-27T22:55:15.498Z,92865.40
2019-04-27T22:57:46.848Z,92856.44
2019-04-27T23:00:18.286Z,92833.39
2019-04-27T23:02:49.485Z,92813.25
2019-04-27T23:05:20.916Z,92829.91
2019-04-27T23:07:51.802Z,92729.80
2019-04-27T23:10:21.611Z,92592.77
2019-04-27T23:12:51.228Z,92591.74
2019-04-27T23:15:22.667Z,92622.59
2019-04-27T23:17:55.402Z,92650.12
2019-04-27T23:20:25.189Z,92671.06
2019-04-27T23:22:54.954Z,92736.17
2019-04-27T23:25:25.622Z,92635.23
2019-04-27T23:27:55.956Z,92645.33
2019-04-27T23:30:31.142Z,92713.94
2019-04-27T23:33:02.553Z,92591.46
2019-04-27T23:35:33.067Z,92628.42
2019-04-27T23:38:14.747Z,92563.89
2019-04-27T23:40:35.672Z,92438.39
2019-04-27T23:43:07.712Z,92520.14
2019-04-27T23:45:37.514Z,92509.64
2019-04-27T23:48:08.606Z,92485.66
2019-04-27T23:50:39.967Z,92375.16
2019-04-27T23:53:11.822Z,92344.20
2019-04-27T23:55:42.426Z,92285.36
2019-04-27T23:58:14.710Z,92248.58
